createdAt,value
2018-12-14T00:00:46.842Z,45.20
2018-12-14T00:03:14.282Z,44.43
2018-12-14T00:05:41.706Z,42.53
2018-12-14T00:08:09.101Z,44.73
2018-12-14T00:10:36.545Z,46.70
2018-12-14T00:13:03.998Z,43.57
2018-12-14T00:15:31.388Z,42.27
2018-12-14T00:17:58.812Z,44.70
2018-12-14T00:20:26.208Z,39.37
2018-12-14T00:22:53.640Z,39.20
2018-12-14T00:25:21.050Z,37.90
2018-12-14T00:27:48.471Z,40.67
2018-12-14T00:30:15.887Z,44.63
2018-12-14T00:32:43.315Z,44.83
2018-12-14T00:35:10.728Z,43.17
2018-12-14T00:37:38.157Z,48.77
2018-12-14T00:40:05.554Z,44.23
2018-12-14T00:42:32.994Z,48.03
2018-12-14T00:45:00.420Z,47.20
2018-12-14T00:47:27.833Z,43.63
2018-12-14T00:49:55.266Z,38.33
2018-12-14T00:52:22.668Z,45.40
2018-12-14T00:54:50.096Z,47.70
2018-12-14T00:57:17.558Z,39.27
2018-12-14T00:59:44.941Z,41.67
2018-12-14T01:02:12.356Z,47.27
2018-12-14T01:04:39.784Z,43.90
2018-12-14T01:07:07.199Z,44.53
2018-12-14T01:09:34.642Z,43.20
2018-12-14T01:12:02.051Z,44.77
2018-12-14T01:14:29.456Z,47.63
2018-12-14T01:16:56.876Z,43.63
2018-12-14T01:19:24.282Z,42.67
2018-12-14T01:21:51.711Z,43.93
2018-12-14T01:24:19.118Z,40.40
2018-12-14T01:26:46.563Z,44.10
2018-12-14T01:29:13.978Z,42.03
2018-12-14T01:31:41.406Z,43.07
2018-12-14T01:34:08.806Z,40.27
2018-12-14T01:36:36.249Z,42.50
2018-12-14T01:39:03.667Z,38.63
2018-12-14T01:41:31.055Z,41.73
2018-12-14T01:43:58.513Z,38.57
2018-12-14T01:46:25.925Z,40.73
2018-12-14T01:48:53.343Z,42.27
2018-12-14T01:51:20.749Z,42.70
2018-12-14T01:53:48.185Z,40.13
2018-12-14T01:56:15.605Z,45.60
2018-12-14T01:58:43.034Z,42.17
2018-12-14T02:01:10.437Z,41.57
2018-12-14T02:03:37.867Z,36.43
2018-12-14T02:06:05.266Z,35.83
2018-12-14T02:08:32.658Z,39.50
2018-12-14T02:11:00.074Z,39.00
2018-12-14T02:13:27.482Z,40.27
2018-12-14T02:15:55.064Z,32.40
2018-12-14T02:18:22.486Z,35.83
2018-12-14T02:20:49.917Z,34.33
2018-12-14T02:23:17.317Z,34.97
2018-12-14T02:25:44.729Z,33.63
2018-12-14T02:28:12.138Z,35.80
2018-12-14T02:30:39.568Z,38.30
2018-12-14T02:33:06.967Z,39.40
2018-12-14T02:35:34.389Z,36.37
2018-12-14T02:38:01.791Z,36.33
2018-12-14T02:40:29.212Z,35.83
2018-12-14T02:42:56.612Z,44.80
2018-12-14T02:45:24.046Z,34.67
2018-12-14T02:47:51.458Z,37.93
2018-12-14T02:50:18.971Z,43.57
2018-12-14T02:52:46.374Z,41.30
2018-12-14T02:55:13.771Z,41.97
2018-12-14T02:57:41.192Z,38.70
2018-12-14T03:00:08.612Z,39.87
2018-12-14T03:02:36.029Z,39.93
2018-12-14T03:05:03.437Z,41.17
2018-12-14T03:07:30.868Z,43.67
2018-12-14T03:09:58.280Z,39.60
2018-12-14T03:12:26.826Z,36.63
2018-12-14T03:14:53.119Z,40.80
2018-12-14T03:17:20.561Z,40.37
2018-12-14T03:19:47.972Z,42.60
2018-12-14T03:22:15.484Z,45.10
2018-12-14T03:24:42.891Z,40.67
2018-12-14T03:27:10.293Z,34.20
2018-12-14T03:29:37.731Z,48.23
2018-12-14T03:32:05.148Z,40.03
2018-12-14T03:34:32.576Z,42.97
2018-12-14T03:36:59.969Z,38.20
2018-12-14T03:39:27.387Z,38.57
2018-12-14T03:41:54.802Z,41.10
2018-12-14T03:44:22.218Z,40.37
2018-12-14T03:46:49.638Z,41.73
2018-12-14T03:49:17.056Z,45.83
2018-12-14T03:51:44.483Z,45.47
2018-12-14T03:54:11.923Z,48.70
2018-12-14T03:56:39.388Z,45.37
2018-12-14T03:59:06.794Z,42.23
2018-12-14T04:01:34.233Z,47.40
2018-12-14T04:04:01.661Z,48.30
2018-12-14T04:06:29.085Z,49.20
2018-12-14T04:08:56.488Z,44.10
2018-12-14T04:11:23.907Z,45.83
2018-12-14T04:13:51.327Z,46.63
2018-12-14T04:16:18.723Z,49.23
2018-12-14T04:18:46.146Z,51.47
2018-12-14T04:21:13.547Z,50.93
2018-12-14T04:23:40.987Z,48.87
2018-12-14T04:26:08.387Z,50.67
2018-12-14T04:28:35.832Z,50.83
2018-12-14T04:31:03.276Z,53.37
2018-12-14T04:33:30.690Z,54.80
2018-12-14T04:35:58.108Z,50.20
2018-12-14T04:38:25.526Z,44.70
2018-12-14T04:40:52.958Z,48.80
2018-12-14T04:43:20.364Z,44.37
2018-12-14T04:45:47.795Z,42.90
2018-12-14T04:48:15.217Z,40.87
2018-12-14T04:50:42.668Z,44.30
2018-12-14T04:53:10.105Z,47.87
2018-12-14T04:55:37.529Z,45.47
2018-12-14T04:58:04.949Z,44.83
2018-12-14T05:00:32.348Z,40.23
2018-12-14T05:02:59.767Z,43.47
2018-12-14T05:05:27.194Z,44.23
2018-12-14T05:07:54.616Z,38.23
2018-12-14T05:10:22.008Z,41.03
2018-12-14T05:12:55.876Z,40.03
2018-12-14T05:15:16.836Z,38.90
2018-12-14T05:17:44.256Z,40.23
2018-12-14T05:20:11.681Z,38.37
2018-12-14T05:22:39.071Z,37.70
2018-12-14T05:25:06.493Z,38.00
2018-12-14T05:27:33.903Z,38.53
2018-12-14T05:30:01.352Z,36.77
2018-12-14T05:32:28.756Z,39.63
2018-12-14T05:34:56.155Z,38.13
2018-12-14T05:37:23.573Z,40.03
2018-12-14T05:39:51.012Z,40.67
2018-12-14T05:42:18.447Z,42.83
2018-12-14T05:44:45.889Z,43.03
2018-12-14T05:47:13.311Z,41.47
2018-12-14T05:49:40.742Z,46.07
2018-12-14T05:52:08.152Z,49.57
2018-12-14T05:54:35.554Z,44.07
2018-12-14T05:57:02.974Z,44.47
2018-12-14T05:59:30.704Z,49.27
2018-12-14T06:01:58.167Z,46.17
2018-12-14T06:04:25.575Z,45.20
2018-12-14T06:06:53.009Z,50.17
2018-12-14T06:09:20.430Z,49.93
2018-12-14T06:11:47.838Z,54.57
2018-12-14T06:14:15.268Z,47.00
2018-12-14T06:16:42.687Z,47.57
2018-12-14T06:19:10.110Z,49.33
2018-12-14T06:21:37.517Z,50.13
2018-12-14T06:24:04.958Z,51.10
2018-12-14T06:26:32.362Z,54.03
2018-12-14T06:28:59.776Z,54.43
2018-12-14T06:31:27.174Z,53.07
2018-12-14T06:33:54.678Z,52.37
2018-12-14T06:36:22.106Z,57.67
2018-12-14T06:38:49.504Z,61.07
2018-12-14T06:41:16.979Z,63.90
2018-12-14T06:43:44.401Z,70.47
2018-12-14T06:46:11.833Z,61.17
2018-12-14T06:48:39.244Z,62.90
2018-12-14T06:51:06.665Z,53.60
2018-12-14T06:53:34.070Z,57.87
2018-12-14T06:56:01.505Z,59.03
2018-12-14T06:58:28.908Z,63.07
2018-12-14T07:00:56.330Z,57.53
2018-12-14T07:03:23.734Z,65.23
2018-12-14T07:05:51.150Z,59.37
2018-12-14T07:08:18.562Z,65.53
2018-12-14T07:10:45.960Z,59.40
2018-12-14T07:13:13.483Z,61.80
2018-12-14T07:15:40.892Z,59.43
2018-12-14T07:18:08.309Z,59.23
2018-12-14T07:20:35.750Z,56.67
2018-12-14T07:23:03.149Z,56.50
2018-12-14T07:25:30.564Z,62.17
2018-12-14T07:27:58.011Z,63.33
2018-12-14T07:30:25.430Z,66.33
2018-12-14T07:32:52.871Z,55.83
2018-12-14T07:35:20.321Z,70.90
2018-12-14T07:37:47.744Z,63.37
2018-12-14T07:40:15.164Z,56.23
2018-12-14T07:42:42.575Z,64.00
2018-12-14T07:45:09.976Z,62.17
2018-12-14T07:47:37.467Z,64.77
2018-12-14T07:50:04.870Z,67.43
2018-12-14T07:52:32.284Z,70.70
2018-12-14T07:54:59.705Z,60.77
2018-12-14T07:57:27.147Z,71.37
2018-12-14T07:59:54.557Z,79.07
2018-12-14T08:02:22.006Z,70.53
2018-12-14T08:04:49.431Z,65.93
2018-12-14T08:07:16.832Z,65.03
2018-12-14T08:09:44.262Z,80.70
2018-12-14T08:12:11.670Z,71.03
2018-12-14T08:14:39.085Z,74.17
2018-12-14T08:17:06.488Z,73.97
2018-12-14T08:19:33.912Z,65.50
2018-12-14T08:22:01.328Z,72.67
2018-12-14T08:24:28.755Z,67.67
2018-12-14T08:26:56.145Z,72.43
2018-12-14T08:29:23.557Z,72.43
2018-12-14T08:31:50.965Z,70.80
2018-12-14T08:34:18.395Z,67.63
2018-12-14T08:36:45.816Z,74.70
2018-12-14T08:39:13.202Z,71.93
2018-12-14T08:41:40.617Z,84.07
2018-12-14T08:44:08.024Z,127.87
2018-12-14T08:46:35.442Z,82.53
2018-12-14T08:49:02.838Z,78.37
2018-12-14T08:51:30.252Z,91.63
2018-12-14T08:53:57.672Z,113.47
2018-12-14T08:56:25.063Z,97.43
2018-12-14T08:58:52.483Z,94.70
2018-12-14T09:01:19.881Z,100.37
2018-12-14T09:03:47.288Z,83.47
2018-12-14T09:06:14.733Z,69.53
2018-12-14T09:08:42.134Z,69.53
2018-12-14T09:11:09.558Z,68.20
2018-12-14T09:13:36.940Z,67.33
2018-12-14T09:16:04.380Z,62.83
2018-12-14T09:18:31.791Z,65.07
2018-12-14T09:21:01.203Z,62.40
2018-12-14T09:23:26.612Z,66.20
2018-12-14T09:25:54.057Z,58.57
2018-12-14T09:28:21.458Z,55.50
2018-12-14T09:30:48.884Z,62.87
2018-12-14T09:33:16.303Z,52.33
2018-12-14T09:35:43.740Z,54.70
2018-12-14T09:38:11.146Z,52.97
2018-12-14T09:40:38.570Z,51.20
2018-12-14T09:43:06.003Z,54.73
2018-12-14T09:45:33.403Z,57.13
2018-12-14T09:48:00.828Z,47.90
2018-12-14T09:50:29.069Z,55.07
2018-12-14T09:52:55.648Z,49.20
2018-12-14T09:55:23.048Z,52.53
2018-12-14T09:57:50.495Z,47.23
2018-12-14T10:00:17.940Z,51.17
2018-12-14T10:02:45.361Z,45.97
2018-12-14T10:05:12.761Z,44.00
2018-12-14T10:07:46.666Z,45.57
2018-12-14T10:10:07.630Z,42.57
2018-12-14T10:12:35.062Z,42.17
2018-12-14T10:15:02.470Z,44.87
2018-12-14T10:17:29.886Z,41.33
2018-12-14T10:19:57.340Z,41.67
2018-12-14T10:22:24.770Z,38.70
2018-12-14T10:24:52.189Z,38.93
2018-12-14T10:27:19.628Z,35.47
2018-12-14T10:29:47.072Z,31.80
2018-12-14T10:32:14.470Z,37.37
2018-12-14T10:34:41.894Z,38.97
2018-12-14T10:37:09.302Z,35.73
2018-12-14T10:39:36.719Z,40.37
2018-12-14T10:42:04.141Z,33.17
2018-12-14T10:44:31.542Z,39.00
2018-12-14T10:46:58.954Z,37.13
2018-12-14T10:49:26.368Z,39.33
2018-12-14T10:51:53.793Z,45.60
2018-12-14T10:54:21.224Z,35.17
2018-12-14T10:56:48.647Z,37.00
2018-12-14T10:59:16.077Z,37.67
2018-12-14T11:01:55.719Z,37.00
2018-12-14T11:04:23.921Z,37.33
2018-12-14T11:06:50.588Z,40.73
2018-12-14T11:09:17.999Z,32.10
2018-12-14T11:11:45.434Z,35.97
2018-12-14T11:14:15.599Z,32.23
2018-12-14T11:16:42.995Z,34.20
2018-12-14T11:19:10.428Z,38.87
2018-12-14T11:21:37.831Z,34.60
2018-12-14T11:24:05.236Z,33.83
2018-12-14T11:26:32.674Z,34.27
2018-12-14T11:29:00.073Z,30.83
2018-12-14T11:31:27.555Z,34.37
2018-12-14T11:33:54.957Z,33.30
2018-12-14T11:36:22.390Z,35.13
2018-12-14T11:38:49.835Z,32.57
2018-12-14T11:41:18.602Z,37.90
2018-12-14T11:43:44.670Z,32.03
2018-12-14T11:46:12.106Z,33.77
2018-12-14T11:48:39.522Z,31.23
2018-12-14T11:51:06.969Z,29.43
2018-12-14T11:53:34.403Z,29.97
2018-12-14T11:56:01.797Z,31.33
2018-12-14T11:58:29.222Z,31.03
2018-12-14T12:00:56.623Z,35.13
2018-12-14T12:03:24.047Z,28.93
2018-12-14T12:05:51.452Z,27.67
2018-12-14T12:08:18.880Z,29.63
2018-12-14T12:10:46.294Z,33.00
2018-12-14T12:13:13.707Z,29.97
2018-12-14T12:15:41.125Z,34.30
2018-12-14T12:18:08.556Z,36.77
2018-12-14T12:20:37.100Z,35.97
2018-12-14T12:23:04.541Z,34.37
2018-12-14T12:25:31.941Z,33.73
2018-12-14T12:27:59.358Z,51.83
2018-12-14T12:30:26.789Z,30.70
2018-12-14T12:32:54.221Z,30.30
2018-12-14T12:35:21.633Z,30.43
2018-12-14T12:37:49.069Z,32.77
2018-12-14T12:40:16.481Z,40.13
2018-12-14T12:42:43.883Z,33.70
2018-12-14T12:45:11.302Z,37.00
2018-12-14T12:47:38.715Z,36.30
2018-12-14T12:50:06.139Z,32.87
2018-12-14T12:52:33.574Z,34.47
2018-12-14T12:55:00.991Z,31.43
2018-12-14T12:57:28.395Z,28.60
2018-12-14T12:59:55.837Z,33.37
2018-12-14T13:02:23.237Z,32.73
2018-12-14T13:04:50.676Z,28.77
2018-12-14T13:07:18.075Z,34.03
2018-12-14T13:09:45.500Z,35.77
2018-12-14T13:12:12.923Z,33.57
2018-12-14T13:14:40.366Z,31.03
2018-12-14T13:17:07.777Z,31.67
2018-12-14T13:19:35.217Z,34.73
2018-12-14T13:22:02.625Z,30.83
2018-12-14T13:24:30.059Z,33.33
2018-12-14T13:26:57.458Z,35.63
2018-12-14T13:29:24.888Z,34.07
2018-12-14T13:31:52.295Z,33.80
2018-12-14T13:34:19.732Z,27.67
2018-12-14T13:36:47.152Z,28.70
2018-12-14T13:39:14.610Z,28.13
2018-12-14T13:41:42.025Z,30.30
2018-12-14T13:44:09.427Z,35.70
2018-12-14T13:46:36.866Z,36.17
2018-12-14T13:49:04.299Z,36.07
2018-12-14T13:51:31.715Z,36.20
2018-12-14T13:53:59.122Z,39.33
2018-12-14T13:56:26.561Z,36.23
2018-12-14T13:58:53.961Z,42.13
2018-12-14T14:01:21.383Z,40.43
2018-12-14T14:03:48.793Z,42.47
2018-12-14T14:06:16.239Z,58.13
2018-12-14T14:08:43.641Z,39.07
2018-12-14T14:11:11.054Z,42.10
2018-12-14T14:13:38.790Z,39.97
2018-12-14T14:16:06.216Z,39.57
2018-12-14T14:18:33.626Z,40.00
2018-12-14T14:21:01.045Z,36.83
2018-12-14T14:23:28.451Z,39.53
2018-12-14T14:25:55.876Z,34.77
2018-12-14T14:28:23.289Z,35.50
2018-12-14T14:30:50.712Z,38.03
2018-12-14T14:33:18.116Z,39.13
2018-12-14T14:35:45.549Z,40.80
2018-12-14T14:38:12.945Z,39.27
2018-12-14T14:40:40.359Z,42.63
2018-12-14T14:43:07.793Z,41.47
2018-12-14T14:45:35.224Z,42.80
2018-12-14T14:48:02.664Z,39.17
2018-12-14T14:50:30.068Z,42.43
2018-12-14T14:52:57.492Z,43.73
2018-12-14T14:55:24.922Z,47.33
2018-12-14T14:57:52.330Z,43.57
2018-12-14T15:00:19.737Z,44.97
2018-12-14T15:02:47.161Z,49.90
2018-12-14T15:05:14.560Z,56.13
2018-12-14T15:07:41.998Z,60.10
2018-12-14T15:10:09.427Z,54.83
2018-12-14T15:12:36.847Z,64.20
2018-12-14T15:15:06.808Z,51.70
2018-12-14T15:17:31.693Z,53.33
2018-12-14T15:19:59.119Z,54.57
2018-12-14T15:22:26.526Z,50.60
2018-12-14T15:24:53.928Z,52.53
2018-12-14T15:27:21.372Z,50.30
2018-12-14T15:29:48.799Z,51.70
2018-12-14T15:32:16.201Z,51.57
2018-12-14T15:34:43.642Z,55.77
2018-12-14T15:37:11.060Z,52.20
2018-12-14T15:39:38.474Z,56.23
2018-12-14T15:42:05.916Z,54.33
2018-12-14T15:44:33.324Z,58.17
2018-12-14T15:47:00.767Z,55.97
2018-12-14T15:49:28.170Z,59.47
2018-12-14T15:51:55.581Z,68.27
2018-12-14T15:54:23.001Z,57.93
2018-12-14T15:56:50.406Z,55.57
2018-12-14T15:59:17.839Z,54.57
2018-12-14T16:01:45.274Z,59.23
2018-12-14T16:04:12.710Z,58.80
2018-12-14T16:06:40.122Z,60.93
2018-12-14T16:09:07.524Z,66.80
2018-12-14T16:11:34.953Z,62.17
2018-12-14T16:14:02.489Z,64.33
2018-12-14T16:16:29.886Z,62.20
2018-12-14T16:18:57.326Z,61.83
2018-12-14T16:21:24.725Z,65.17
2018-12-14T16:23:52.165Z,66.33
2018-12-14T16:26:19.573Z,60.13
2018-12-14T16:28:46.982Z,63.83
2018-12-14T16:31:14.399Z,63.70
2018-12-14T16:33:41.800Z,63.27
2018-12-14T16:36:09.243Z,67.77
2018-12-14T16:38:36.641Z,63.07
2018-12-14T16:41:04.081Z,65.90
2018-12-14T16:43:31.497Z,69.13
2018-12-14T16:45:58.949Z,67.57
2018-12-14T16:48:26.421Z,75.20
2018-12-14T16:50:53.832Z,82.73
2018-12-14T16:53:21.269Z,78.13
2018-12-14T16:55:48.674Z,77.77
2018-12-14T16:58:16.112Z,77.00
2018-12-14T17:00:43.516Z,71.53
2018-12-14T17:03:10.947Z,94.53
2018-12-14T17:05:38.353Z,74.17
2018-12-14T17:08:05.768Z,77.50
2018-12-14T17:10:33.204Z,69.43
2018-12-14T17:13:00.626Z,74.17
2018-12-14T17:15:33.243Z,74.20
2018-12-14T17:17:55.444Z,75.63
2018-12-14T17:20:22.867Z,74.93
2018-12-14T17:22:50.284Z,73.17
2018-12-14T17:25:17.692Z,73.00
2018-12-14T17:27:45.107Z,77.80
2018-12-14T17:30:12.536Z,89.27
2018-12-14T17:32:39.980Z,75.53
2018-12-14T17:35:07.389Z,82.97
2018-12-14T17:37:34.854Z,87.37
2018-12-14T17:40:02.296Z,87.30
2018-12-14T17:42:29.692Z,86.83
2018-12-14T17:44:57.138Z,88.23
2018-12-14T17:47:24.554Z,85.83
2018-12-14T17:49:51.980Z,81.10
2018-12-14T17:52:19.398Z,76.93
2018-12-14T17:54:46.800Z,78.67
2018-12-14T17:57:14.217Z,77.63
2018-12-14T17:59:41.748Z,82.77
2018-12-14T18:02:09.145Z,72.03
2018-12-14T18:04:36.563Z,74.97
2018-12-14T18:07:04.018Z,74.60
2018-12-14T18:09:31.448Z,71.60
2018-12-14T18:11:58.889Z,77.60
2018-12-14T18:14:26.333Z,73.53
2018-12-14T18:16:53.785Z,76.17
2018-12-14T18:19:21.171Z,74.90
2018-12-14T18:21:48.614Z,67.50
2018-12-14T18:24:16.023Z,71.13
2018-12-14T18:26:43.458Z,69.03
2018-12-14T18:29:10.879Z,72.10
2018-12-14T18:31:38.301Z,75.90
2018-12-14T18:34:05.712Z,73.50
2018-12-14T18:36:33.145Z,66.13
2018-12-14T18:39:00.612Z,70.47
2018-12-14T18:41:28.043Z,66.33
2018-12-14T18:43:55.449Z,73.97
2018-12-14T18:46:22.878Z,71.13
2018-12-14T18:48:50.290Z,64.57
2018-12-14T18:51:17.723Z,66.63
2018-12-14T18:53:45.129Z,75.70
2018-12-14T18:56:12.572Z,73.60
2018-12-14T18:58:39.984Z,74.90
2018-12-14T19:01:07.401Z,74.97
2018-12-14T19:03:34.838Z,69.10
2018-12-14T19:06:02.246Z,73.37
2018-12-14T19:08:29.781Z,61.17
2018-12-14T19:10:57.218Z,71.33
2018-12-14T19:13:24.635Z,71.50
2018-12-14T19:15:52.068Z,75.77
2018-12-14T19:18:19.515Z,71.77
2018-12-14T19:20:47.010Z,69.70
2018-12-14T19:23:19.532Z,70.73
2018-12-14T19:25:41.831Z,73.00
2018-12-14T19:28:09.236Z,72.73
2018-12-14T19:30:36.659Z,67.57
2018-12-14T19:33:04.112Z,70.77
2018-12-14T19:35:31.536Z,72.43
2018-12-14T19:37:58.939Z,65.40
2018-12-14T19:40:26.414Z,67.40
2018-12-14T19:42:53.847Z,63.33
2018-12-14T19:45:21.259Z,66.17
2018-12-14T19:47:48.685Z,69.60
2018-12-14T19:50:16.104Z,63.60
2018-12-14T19:52:43.547Z,64.03
2018-12-14T19:55:10.947Z,67.40
2018-12-14T19:57:38.355Z,66.73
2018-12-14T20:00:05.791Z,58.57
2018-12-14T20:02:33.231Z,56.27
2018-12-14T20:05:00.655Z,54.43
2018-12-14T20:07:28.070Z,53.17
2018-12-14T20:09:55.478Z,57.37
2018-12-14T20:12:22.894Z,56.93
2018-12-14T20:14:50.326Z,60.63
2018-12-14T20:17:17.746Z,56.53
2018-12-14T20:19:45.160Z,54.20
2018-12-14T20:22:12.588Z,52.77
2018-12-14T20:24:40.314Z,54.63
2018-12-14T20:27:07.703Z,57.43
2018-12-14T20:29:35.129Z,53.87
2018-12-14T20:32:02.580Z,47.47
2018-12-14T20:34:29.986Z,46.33
2018-12-14T20:36:57.429Z,41.57
2018-12-14T20:39:24.858Z,43.53
2018-12-14T20:41:52.270Z,43.10
2018-12-14T20:44:19.696Z,39.93
2018-12-14T20:46:47.106Z,38.97
2018-12-14T20:49:14.532Z,38.50
2018-12-14T20:51:41.993Z,37.60
2018-12-14T20:54:09.432Z,34.77
2018-12-14T20:56:36.850Z,37.67
2018-12-14T20:59:04.283Z,35.93
2018-12-14T21:01:31.720Z,35.43
2018-12-14T21:03:59.132Z,34.93
2018-12-14T21:06:26.564Z,32.50
2018-12-14T21:08:53.993Z,29.93
2018-12-14T21:11:21.406Z,33.60
2018-12-14T21:13:48.857Z,31.00
2018-12-14T21:16:16.381Z,31.33
2018-12-14T21:18:43.811Z,31.53
2018-12-14T21:21:11.251Z,26.87
2018-12-14T21:23:38.648Z,29.07
2018-12-14T21:26:06.082Z,32.33
2018-12-14T21:28:33.517Z,29.10
2018-12-14T21:31:00.966Z,29.00
2018-12-14T21:33:28.399Z,26.90
2018-12-14T21:35:55.878Z,31.43
2018-12-14T21:38:23.297Z,28.90
2018-12-14T21:40:50.730Z,29.97
2018-12-14T21:43:18.163Z,32.13
2018-12-14T21:45:45.637Z,31.47
2018-12-14T21:48:13.139Z,34.70
2018-12-14T21:50:40.595Z,32.30
2018-12-14T21:53:14.277Z,29.67
2018-12-14T21:55:35.478Z,25.53
2018-12-14T21:58:02.874Z,33.73
2018-12-14T22:00:30.305Z,47.23
2018-12-14T22:02:57.732Z,37.60
2018-12-14T22:05:25.146Z,30.60
2018-12-14T22:07:52.593Z,25.90
2018-12-14T22:10:20.018Z,23.43
2018-12-14T22:12:47.444Z,24.03
2018-12-14T22:15:14.857Z,25.63
2018-12-14T22:17:42.288Z,25.77
2018-12-14T22:20:09.725Z,23.23
2018-12-14T22:22:37.144Z,24.80
2018-12-14T22:25:04.617Z,23.40
2018-12-14T22:27:32.057Z,22.73
2018-12-14T22:30:00.812Z,23.13
2018-12-14T22:32:28.210Z,20.07
2018-12-14T22:34:55.645Z,25.10
2018-12-14T22:37:23.060Z,24.60
2018-12-14T22:39:50.578Z,24.37
2018-12-14T22:42:17.989Z,24.50
2018-12-14T22:44:45.388Z,32.47
2018-12-14T22:47:12.828Z,32.03
2018-12-14T22:49:40.248Z,23.40
2018-12-14T22:52:07.695Z,23.37
2018-12-14T22:54:35.112Z,26.50
2018-12-14T22:57:02.530Z,22.63
2018-12-14T22:59:29.929Z,24.67
2018-12-14T23:01:57.372Z,26.47
2018-12-14T23:04:24.794Z,26.33
2018-12-14T23:06:52.195Z,24.87
2018-12-14T23:09:19.631Z,22.53
2018-12-14T23:11:47.074Z,25.50
2018-12-14T23:14:14.489Z,23.97
2018-12-14T23:16:41.901Z,23.07
2018-12-14T23:19:09.343Z,24.83
2018-12-14T23:21:36.757Z,23.67
2018-12-14T23:24:04.227Z,23.63
2018-12-14T23:26:31.659Z,25.93
2018-12-14T23:28:59.049Z,23.27
2018-12-14T23:31:26.486Z,23.03
2018-12-14T23:33:53.964Z,24.00
2018-12-14T23:36:21.301Z,23.27
2018-12-14T23:38:48.737Z,24.73
2018-12-14T23:41:16.166Z,21.83
2018-12-14T23:43:43.588Z,21.33
2018-12-14T23:46:11.021Z,24.83
2018-12-14T23:48:38.434Z,25.33
2018-12-14T23:51:05.850Z,22.17
2018-12-14T23:53:33.290Z,25.07
2018-12-14T23:56:00.724Z,23.20
2018-12-14T23:58:28.159Z,26.83
